Search for airport 
image banner adimage banner adimage banner ad
image banner ad

PA11 - The Gettysburg Hospital

Located in Gettysburg, United States

ICAO - PA11, IATA -

Data provided by Airmate  

General information

Coordinates: N39°49'29" W77°14'9"
Elevation is 554 feet MSL.
Magnetic variation is -11° East
View others Airports in Pennsylvania

Operational data

Special qualification required
Current time UTC:
Current local time:
METAR: KDMW 091315Z AUTO 00000KT 10SM SCT070 OVC090 09/03 A3010 RMK AO2
View NOTAMs / SUP AIP / TFR affecting this airport [VIEW]
Communications frequencies: [VIEW]

Runways:

RWY identifierQFULength (ft)Width (ft)SurfaceLDA (ft)
06W4000200WATER
24W4000200WATER

Airport contact information

Address: Gettysburg United States

Satellite view of PA11